Latest Weather Observations for East Sale Airport

IDV60801

Issued at 1:03 pm EDT Monday 20 November 2017 (issued every 30 minutes, with the page automatically refreshed every 10 minutes)

About weather observations | Map of weather stations | Latest weather observations for VIC | Other Formats
Station Details ID: 085314 Name: EAST SALE AIRPORT Lat: -38.10 Lon: 147.14 Height: 5.3 m
Data from the previous 72 hours. | See also: Recent months for locations in Victoria
Date/Time
EDT
Temp
°C
App
Temp
°C
Dew
Point
°C
Rel
Hum
%
Delta-T
°C
Wind Press
QNH
hPa
Press
MSL
hPa
Rain since
9am
mm
Dir  Spd
km/h
Gust
km/h
Spd
kts
Gust
kts
20/12:30pm 27.7 - - - - SSE 11 15 6 8 1022.2 - 0.0
20/12:00pm 27.7 26.9 12.9 40 8.6 ENE 9 19 5 10 1022.4 - 0.0
20/11:30am 26.2 20.3 -26.8 2 15.3 SE 11 19 6 10 1022.8 - 0.0
20/11:00am 25.2 25.1 14.0 49 6.6 ESE 7 11 4 6 1023.0 - 0.0
20/10:30am 24.4 24.7 15.1 56 5.6 W 7 17 4 9 1023.3 - 0.0
20/10:00am 23.4 23.8 14.7 58 5.1 N 6 11 3 6 1023.5 - 0.0
20/09:30am 22.2 22.2 14.1 60 4.7 NNW 7 11 4 6 1023.6 - 0.0
20/09:00am 21.1 21.5 14.7 67 3.7 N 6 7 3 4 1023.6 - 0.0
20/08:30am 19.8 20.2 14.8 73 2.9 ENE 6 9 3 5 1023.4 - 0.0
20/08:00am 18.7 20.1 15.4 81 1.9 SE 2 6 1 3 1023.3 - 0.0
20/07:30am 16.9 17.5 15.2 90 1.0 S 6 7 3 4 1023.1 - 0.0
20/07:00am 15.1 16.5 14.5 96 0.3 CALM 0 0 0 0 1022.8 - 0.0
20/06:30am 12.8 12.7 12.0 95 0.4 NNE 4 7 2 4 1022.4 - 0.0
20/06:00am 11.9 12.2 11.0 94 0.5 CALM 0 0 0 0 1022.1 - 0.0
20/05:30am 12.6 13.1 11.7 94 0.5 CALM 0 0 0 0 1021.6 - 0.0
20/05:00am 13.4 13.5 12.6 95 0.4 NNW 4 6 2 3 1021.3 - 0.0
20/04:30am 13.9 13.5 13.1 95 0.4 NNW 7 7 4 4 1021.1 - 0.0
20/04:00am 13.0 11.9 12.1 94 0.5 N 9 9 5 5 1021.2 - 0.0
20/03:30am 13.3 13.9 12.0 92 0.7 CALM 0 0 0 0 1021.1 - 0.0
20/03:00am 14.2 13.9 12.8 91 0.8 WSW 6 9 3 5 1021.0 - 0.0
20/02:30am 15.4 14.9 13.8 90 0.9 WSW 9 11 5 6 1020.9 - 0.0
20/02:00am 15.6 15.1 13.8 89 1.0 W 9 11 5 6 1020.9 - 0.0
20/01:30am 15.6 15.1 13.8 89 1.0 WSW 9 11 5 6 1021.2 - 0.0
20/01:00am 15.3 15.2 13.8 91 0.8 SSW 7 7 4 4 1021.2 - 0.0
20/12:30am 15.5 15.0 13.9 90 0.9 SW 9 13 5 7 1021.4 - 0.0
20/12:00am 16.0 14.8 14.0 88 1.1 SSW 13 15 7 8 1021.4 - 0.0
 
Date/Time
EDT
Temp
°C
App
Temp
°C
Dew
Point
°C
Rel
Hum
%
Delta-T
°C
Wind Press
QNH
hPa
Press
MSL
hPa
Rain since
9am
mm
Dir  Spd
km/h
Gust
km/h
Spd
kts
Gust
kts
19/11:30pm 15.9 14.6 13.7 87 1.2 SSW 13 15 7 8 1021.5 - 0.0
19/11:00pm 16.9 16.2 14.2 84 1.5 S 11 13 6 7 1021.4 - 0.0
19/10:30pm 17.3 16.2 14.4 83 1.7 SSE 13 15 7 8 1021.4 - 0.0
19/10:00pm 17.2 16.9 14.5 84 1.5 SSE 9 13 5 7 1021.4 - 0.0
19/09:30pm 17.3 16.2 14.4 83 1.7 SSE 13 15 7 8 1021.0 - 0.0
19/09:00pm 17.9 16.5 14.4 80 2.0 SE 15 19 8 10 1020.9 - 0.0
19/08:30pm 18.7 16.9 14.4 76 2.5 SE 17 20 9 11 1020.9 - 0.0
19/08:00pm 20.0 18.6 14.6 71 3.1 SE 15 17 8 9 1020.8 - 0.0
19/07:30pm 21.5 20.1 14.6 65 4.0 SE 15 20 8 11 1020.6 - 0.0
19/07:00pm 22.9 17.1 -4.2 16 11.3 ESE 17 20 9 11 1020.4 - 0.0
19/06:30pm 24.1 16.9 -15.7 6 13.5 ESE 20 26 11 14 1020.2 - 0.0
19/06:00pm 25.0 18.1 -10.0 9 13.3 E 20 26 11 14 1020.0 - 0.0
19/05:30pm 25.8 18.6 -9.4 9 13.7 E 22 28 12 15 1019.7 - 0.0
19/05:00pm 26.4 19.6 -9.0 9 13.9 ESE 20 28 11 15 1019.6 - 0.0
19/04:30pm 26.0 19.0 -6.7 11 13.4 ESE 22 32 12 17 1019.5 - 0.0
19/04:00pm 26.3 19.2 -4.3 13 13.1 ESE 24 32 13 17 1019.6 - 0.0
19/03:30pm 26.9 19.5 -7.2 10 14.0 SE 24 37 13 20 1019.8 - 0.0
19/03:00pm 27.1 20.1 -7.1 10 14.0 SE 22 32 12 17 1019.9 - 0.0
19/02:30pm 27.0 20.6 -4.8 12 13.6 SE 20 28 11 15 1020.0 - 0.0
19/02:00pm 27.1 20.5 -3.7 13 13.4 ESE 22 33 12 18 1020.2 - 0.0
19/01:30pm 27.1 21.8 -0.9 16 12.9 SE 17 26 9 14 1020.4 - 0.0
19/01:00pm 26.1 19.5 -3.5 14 12.8 SE 22 32 12 17 1020.6 - 0.0
19/12:30pm 27.2 20.4 -1.7 15 13.1 ESE 24 32 13 17 1020.7 - 0.0
19/12:00pm 27.6 22.7 -6.7 10 14.2 SW 11 19 6 10 1020.7 - 0.0
19/11:30am 25.8 22.2 4.9 26 10.6 W 13 20 7 11 1020.8 - 0.0
19/11:00am 24.5 23.9 14.6 54 5.9 WSW 11 17 6 9 1020.7 - 0.0
19/10:30am 23.5 22.5 14.5 57 5.3 W 13 19 7 10 1020.7 - 0.0
19/10:00am 21.2 20.3 14.8 67 3.8 WNW 13 17 7 9 1020.8 - 0.0
19/09:30am 19.7 19.4 14.5 72 3.0 NW 9 15 5 8 1021.0 - 0.0
19/09:00am 18.6 18.3 14.5 77 2.4 NW 9 11 5 6 1020.9 - 0.0
19/08:30am 17.4 17.4 14.3 82 1.8 NW 7 9 4 5 1020.7 - 0.0
19/08:00am 16.1 16.4 14.5 90 0.9 NW 6 9 3 5 1020.4 - 0.0
19/07:30am 14.6 15.6 14.3 98 0.2 NW 2 7 1 4 1020.0 - 0.0
19/07:00am 13.6 13.3 13.3 98 0.2 NW 7 11 4 6 1019.7 - 0.0
19/06:30am 12.7 12.1 12.2 97 0.3 NNE 7 11 4 6 1019.5 - 0.0
19/06:11am 11.5 10.5 10.9 96 0.3 NE 7 9 4 5 1019.1 - 0.0
19/06:00am 12.5 12.0 12.0 97 0.3 NE 6 7 3 4 1019.1 - 0.0
19/05:30am 12.1 11.4 11.5 96 0.3 N 6 6 3 3 1019.0 - 0.0
19/05:00am 11.6 10.6 11.0 96 0.3 ENE 7 9 4 5 1018.8 - 0.0
19/04:55am 12.1 11.8 11.5 96 0.3 NE 4 9 2 5 1018.6 - 0.0
19/04:30am 13.3 13.0 12.7 96 0.3 N 6 7 3 4 1018.6 - 0.0
19/04:05am 13.4 14.3 12.8 96 0.3 CALM 0 0 0 0 1018.5 - 0.0
19/04:00am 13.8 14.8 13.2 96 0.3 CALM 0 0 0 0 1018.5 - 0.0
19/03:30am 13.1 13.1 12.3 95 0.4 NNE 4 9 2 5 1018.3 - 0.0
19/03:28am 13.0 12.5 12.2 95 0.4 NNE 6 9 3 5 1018.3 - 0.0
19/03:00am 13.7 13.2 12.8 94 0.5 N 7 9 4 5 1018.3 - 0.0
19/02:30am 13.6 13.2 12.5 93 0.6 N 6 7 3 4 1018.2 - 0.0
19/02:00am 13.6 12.9 12.0 90 0.9 ENE 7 9 4 5 1018.2 - 0.0
19/01:30am 14.6 14.3 12.6 88 1.1 NNE 6 6 3 3 1018.3 - 0.0
19/01:00am 15.6 14.9 13.3 86 1.3 E 9 13 5 7 1018.3 - 0.0
19/12:30am 16.0 15.2 14.0 88 1.1 SE 11 11 6 6 1018.3 - 0.0
19/12:00am 16.2 15.7 13.9 86 1.3 E 9 11 5 6 1018.2 - 0.0
 
Date/Time
EDT
Temp
°C
App
Temp
°C
Dew
Point
°C
Rel
Hum
%
Delta-T
°C
Wind Press
QNH
hPa
Press
MSL
hPa
Rain since
9am
mm
Dir  Spd
km/h
Gust
km/h
Spd
kts
Gust
kts
18/11:30pm 16.4 16.4 14.2 87 1.3 SE 7 11 4 6 1017.9 - 0.0
18/11:00pm 17.4 18.2 14.9 85 1.4 SE 4 9 2 5 1017.8 - 0.0
18/10:30pm 17.0 18.2 13.9 82 1.8 CALM 0 0 0 0 1017.8 - 0.0
18/10:00pm 18.1 18.6 15.0 82 1.8 E 6 6 3 3 1017.5 - 0.0
18/09:30pm 18.6 18.1 14.9 79 2.2 E 11 17 6 9 1017.3 - 0.0
18/09:00pm 18.9 17.6 14.8 77 2.4 E 15 17 8 9 1017.0 - 0.0
18/08:30pm 19.2 18.3 14.9 76 2.5 ESE 13 17 7 9 1016.8 - 0.0
18/08:00pm 19.4 18.4 14.6 74 2.8 ESE 13 15 7 8 1016.9 - 0.0
18/07:30pm 20.8 21.0 14.7 68 3.6 SE 7 11 4 6 1016.8 - 0.0
18/07:00pm 21.2 20.8 15.1 68 3.6 E 11 15 6 8 1016.5 - 0.0
18/06:30pm 21.2 20.1 15.3 69 3.5 ESE 15 20 8 11 1016.1 - 0.0
18/06:00pm 21.5 19.3 14.9 66 3.9 ESE 20 24 11 13 1016.3 - 0.0
18/05:30pm 22.2 20.5 14.8 63 4.4 ENE 17 24 9 13 1016.4 - 0.0
18/05:00pm 23.3 19.1 13.5 54 5.7 E 28 33 15 18 1016.1 - 0.0
18/04:30pm 25.7 19.3 8.7 34 9.2 E 32 41 17 22 1016.0 - 0.0
18/04:00pm 26.2 20.2 8.7 33 9.5 E 30 35 16 19 1016.0 - 0.0
18/03:30pm 27.5 21.0 2.6 20 12.2 E 26 35 14 19 1016.1 - 0.0
18/03:00pm 27.4 21.7 8.3 30 10.3 E 28 33 15 18 1016.3 - 0.0
18/02:30pm 26.9 19.5 2.1 20 12.0 E 30 35 16 19 1016.6 - 0.0
18/02:00pm 26.6 17.4 -33.8 1 15.6 E 28 35 15 19 1016.5 - 0.0
18/01:30pm 26.5 18.9 -26.6 2 15.4 E 20 28 11 15 1016.6 - 0.0
18/01:00pm 26.7 - - - - E 17 22 9 12 1016.9 - 0.0
18/12:30pm 25.4 20.5 2.2 22 11.1 ENE 17 24 9 13 1017.3 - 0.0
18/12:00pm 24.5 22.9 14.9 55 5.7 ENE 17 22 9 12 1017.5 - 0.0
18/11:30am 24.3 23.7 14.7 55 5.7 E 11 19 6 10 1017.5 - 0.0
18/11:00am 23.5 22.8 15.3 60 4.9 ENE 13 19 7 10 1017.7 - 0.0
18/10:30am 23.1 23.2 14.4 58 5.1 N 7 13 4 7 1017.7 - 0.0
18/10:00am 21.4 21.6 14.6 65 4.0 NE 7 11 4 6 1017.8 - 0.0
18/09:30am 19.7 19.4 14.5 72 3.0 NNW 9 13 5 7 1017.8 - 0.0
18/09:00am 18.0 18.2 14.7 81 1.9 N 7 11 4 6 1018.0 - 0.4
18/08:30am 18.0 18.2 14.3 79 2.1 N 6 9 3 5 1017.9 - 0.4
18/08:00am 16.3 16.3 14.3 88 1.1 NNW 7 9 4 5 1017.7 - 0.4
18/07:30am 15.6 15.5 13.4 87 1.2 NNW 6 7 3 4 1017.3 - 0.4
18/07:00am 14.8 13.9 12.7 87 1.1 NW 9 11 5 6 1017.0 - 0.4
18/06:30am 14.6 14.0 12.3 86 1.3 NW 7 11 4 6 1016.8 - 0.4
18/06:00am 13.7 12.8 11.4 86 1.2 NNE 7 9 4 5 1016.3 - 0.4
18/05:30am 13.4 13.8 11.3 87 1.1 CALM 0 0 0 0 1015.6 - 0.4
18/05:00am 13.7 13.2 12.1 90 0.9 ESE 6 11 3 6 1015.4 - 0.4
18/04:30am 14.0 13.7 11.5 85 1.3 W 4 6 2 3 1015.3 - 0.4
18/04:00am 15.5 16.4 13.0 85 1.4 CALM 0 6 0 3 1015.1 - 0.4
18/03:30am 14.6 15.1 11.6 82 1.6 CALM 0 4 0 2 1014.9 - 0.4
18/03:00am 16.3 15.5 12.8 80 1.9 NW 9 11 5 6 1014.6 - 0.4
18/02:30am 17.4 15.8 12.9 75 2.5 NE 13 20 7 11 1014.5 - 0.4
18/02:00am 16.9 14.1 13.2 79 2.1 ENE 20 24 11 13 1014.3 - 0.4
18/01:30am 17.2 14.6 13.7 80 2.0 ENE 20 26 11 14 1014.4 - 0.4
18/01:00am 16.8 15.3 14.1 84 1.5 ENE 15 19 8 10 1014.6 - 0.4
18/12:30am 17.1 15.7 14.6 85 1.4 ENE 15 17 8 9 1014.4 - 0.4
18/12:00am 16.7 15.7 14.5 87 1.3 E 13 15 7 8 1014.3 - 0.4
 
Date/Time
EDT
Temp
°C
App
Temp
°C
Dew
Point
°C
Rel
Hum
%
Delta-T
°C
Wind Press
QNH
hPa
Press
MSL
hPa
Rain since
9am
mm
Dir  Spd
km/h
Gust
km/h
Spd
kts
Gust
kts
17/11:30pm 16.4 17.0 15.3 93 0.6 SSE 6 6 3 3 1014.3 - 0.4
17/11:00pm 16.6 15.9 15.5 93 0.6 ESE 13 15 7 8 1014.5 - 0.4
17/10:30pm 16.8 16.1 15.3 91 0.9 SE 13 19 7 10 1014.4 - 0.4
17/10:00pm 17.4 19.0 15.0 86 1.4 CALM 0 0 0 0 1014.5 - 0.4
17/09:30pm 17.5 19.1 14.8 84 1.6 CALM 0 4 0 2 1014.3 - 0.2
17/09:00pm 16.8 18.2 14.4 86 1.4 CALM 0 0 0 0 1014.0 - 0.2
17/08:30pm 17.6 18.1 14.9 84 1.6 NE 6 6 3 3 1013.9 - 0.2
17/08:00pm 18.1 17.9 14.6 80 2.0 E 9 13 5 7 1013.9 - 0.2
17/07:30pm 19.6 17.8 14.4 72 3.0 ENE 17 24 9 13 1013.9 - 0.2
17/07:00pm 21.1 21.4 15.0 68 3.6 NNE 7 9 4 5 1013.3 - 0.2
17/06:30pm 21.6 21.4 13.5 60 4.7 W 7 9 4 5 1013.4 - 0.2
17/06:00pm 20.9 21.0 14.5 67 3.7 NNE 7 11 4 6 1013.3 - 0.2
17/05:30pm 20.9 18.2 14.5 67 3.7 ENE 22 32 12 17 1013.6 - 0.2
17/05:00pm 23.0 18.7 15.8 64 4.3 E 33 44 18 24 1013.1 - 0.2
17/04:30pm 20.5 16.6 14.4 68 3.6 ENE 28 41 15 22 1012.9 - 0.2
17/04:00pm 20.9 19.6 15.7 72 3.1 NNE 17 30 9 16 1013.4 - 0.2
17/03:30pm 21.1 18.7 16.5 75 2.8 ENE 24 28 13 15 1013.3 - 0.0
17/03:00pm 22.7 18.4 15.5 64 4.3 E 32 41 17 22 1012.7 - 0.0
17/02:30pm 24.4 20.3 13.9 52 6.2 E 28 37 15 20 1012.7 - 0.0
17/02:00pm 21.4 17.2 14.6 65 4.0 ESE 30 48 16 26 1013.2 - 0.0
17/01:56pm 21.6 17.2 14.0 62 4.4 E 30 48 16 26 1013.1 - 0.0
17/01:30pm 23.4 18.3 13.6 54 5.7 E 33 41 18 22 1013.9 - 0.0

Other Formats:

Comma delimited format used in spreadsheet applications
http://www.bom.gov.au/fwo/IDV60801/IDV60801.99907.axf

JavaScript Object Notation format (JSON) in row-major order
http://www.bom.gov.au/fwo/IDV60801/IDV60801.99907.json